Time;durP1;ratioP1;P1;durP2;ratioP2;P2;SDS_P1;SDS_P2;PMS_P1;PMS_P2;Temp;Humidity;BMP_temperature;BMP_pressure;BME280_temperature;BME280_humidity;BME280_pressure;Samples;Min_cycle;Max_cycle;Signal;HPM_P1;HPM_P2
2022/10/22 00:04:43;;;;;;;6.30;1.48;;;;;;;;;;20998885;28;20075;-61
2022/10/22 00:14:46;;;;;;;4.72;1.35;;;;;;;;;;21008424;28;20080;-61
2022/10/22 00:24:48;;;;;;;5.00;1.42;;;;;;;;;;21007375;28;20127;-62
2022/10/22 00:34:49;;;;;;;6.30;1.67;;;;;;;;;;21006366;28;20139;-61
2022/10/22 00:45:07;;;;;;;4.57;1.80;;;;;;;;;;21005823;28;20059;-61
2022/10/22 00:55:09;;;;;;;11.13;2.20;;;;;;;;;;21005675;28;20059;-61
2022/10/22 01:05:11;;;;;;;4.40;1.27;;;;;;;;;;21004518;28;20083;-60
2022/10/22 01:15:32;;;;;;;5.72;1.73;;;;;;;;;;21002996;28;20067;-60
2022/10/22 01:25:50;;;;;;;6.00;2.50;;;;;;;;;;21003406;28;20389;-61
2022/10/22 01:35:52;;;;;;;5.30;1.90;;;;;;;;;;21001709;28;20060;-61
2022/10/22 01:45:59;;;;;;;4.03;1.70;;;;;;;;;;21000303;28;20496;-61
2022/10/22 01:56:11;;;;;;;5.07;1.73;;;;;;;;;;21000955;28;20056;-60
2022/10/22 02:06:33;;;;;;;5.68;2.53;;;;;;;;;;21000258;28;20060;-62
2022/10/22 02:16:50;;;;;;;6.90;2.55;;;;;;;;;;20998360;28;20259;-61
2022/10/22 02:27:04;;;;;;;8.10;2.10;;;;;;;;;;20997444;28;20049;-61
2022/10/22 02:37:18;;;;;;;5.28;2.05;;;;;;;;;;20996610;28;20058;-59
2022/10/22 02:47:23;;;;;;;5.07;1.75;;;;;;;;;;20996011;28;20476;-62
2022/10/22 02:57:26;;;;;;;4.82;1.65;;;;;;;;;;20995768;28;20098;-61
2022/10/22 03:07:29;;;;;;;3.22;1.10;;;;;;;;;;20978779;28;20049;-61
2022/10/22 03:17:31;;;;;;;3.50;1.33;;;;;;;;;;20995497;28;20412;-58
2022/10/22 03:27:38;;;;;;;2.75;1.60;;;;;;;;;;20994991;28;20072;-59
2022/10/22 03:37:41;;;;;;;4.00;1.65;;;;;;;;;;20995382;28;20386;-60
2022/10/22 03:47:44;;;;;;;4.97;1.80;;;;;;;;;;20944102;28;20510;-60
2022/10/22 03:57:48;;;;;;;3.42;1.10;;;;;;;;;;20927334;28;20076;-60
2022/10/22 04:07:49;;;;;;;2.75;0.95;;;;;;;;;;20925900;28;20075;-60
2022/10/22 04:17:52;;;;;;;6.22;1.42;;;;;;;;;;20925480;28;20390;-61
2022/10/22 04:27:54;;;;;;;3.85;2.08;;;;;;;;;;20924717;28;20416;-59
2022/10/22 04:37:57;;;;;;;3.58;2.50;;;;;;;;;;20924751;28;20049;-60
2022/10/22 04:48:04;;;;;;;5.50;2.88;;;;;;;;;;20922635;28;20406;-60
2022/10/22 04:58:06;;;;;;;4.55;2.30;;;;;;;;;;20921347;28;20128;-60
2022/10/22 05:08:08;;;;;;;5.82;2.42;;;;;;;;;;20921554;28;20045;-60
2022/10/22 05:18:10;;;;;;;4.20;2.00;;;;;;;;;;20920656;28;20510;-61
2022/10/22 05:28:12;;;;;;;5.72;2.40;;;;;;;;;;20919987;28;20052;-60
2022/10/22 05:38:15;;;;;;;4.43;2.40;;;;;;;;;;20919077;28;20397;-61
2022/10/22 05:48:17;;;;;;;5.90;2.33;;;;;;;;;;20917621;28;20087;-60
2022/10/22 05:58:19;;;;;;;5.28;3.10;;;;;;;;;;20917504;28;20049;-60
2022/10/22 06:08:22;;;;;;;7.68;3.55;;;;;;;;;;20915919;28;20067;-60
2022/10/22 06:18:24;;;;;;;5.07;3.22;;;;;;;;;;20916414;28;20106;-60
2022/10/22 06:28:26;;;;;;;6.90;3.38;;;;;;;;;;20914492;28;20092;-59
2022/10/22 06:38:28;;;;;;;7.32;3.92;;;;;;;;;;20914441;28;20044;-61
2022/10/22 06:48:31;;;;;;;7.65;3.25;;;;;;;;;;20913212;28;20149;-60
2022/10/22 06:58:33;;;;;;;7.63;4.35;;;;;;;;;;20912768;28;20417;-62
2022/10/22 07:08:36;;;;;;;12.88;6.05;;;;;;;;;;20912958;28;20053;-61
2022/10/22 07:18:38;;;;;;;15.20;7.25;;;;;;;;;;20911590;28;20049;-60
2022/10/22 07:28:40;;;;;;;8.75;5.60;;;;;;;;;;20911469;28;20136;-60
2022/10/22 07:38:47;;;;;;;13.50;5.13;;;;;;;;;;20911323;28;20056;-62
2022/10/22 07:48:49;;;;;;;18.92;9.95;;;;;;;;;;20910634;28;20624;-62
2022/10/22 07:58:51;;;;;;;11.07;7.45;;;;;;;;;;20910781;28;20052;-60
2022/10/22 08:08:53;;;;;;;22.98;16.42;;;;;;;;;;20910711;28;20508;-61
2022/10/22 08:18:55;;;;;;;12.27;5.45;;;;;;;;;;20910470;28;20049;-61
2022/10/22 08:28:57;;;;;;;6.70;3.83;;;;;;;;;;20918885;28;20404;-61
2022/10/22 08:38:59;;;;;;;8.00;4.13;;;;;;;;;;20923343;28;20044;-62
2022/10/22 08:49:04;;;;;;;8.40;3.42;;;;;;;;;;20922430;28;20079;-61
2022/10/22 08:59:09;;;;;;;10.25;5.05;;;;;;;;;;20921168;28;20052;-66
2022/10/22 09:09:16;;;;;;;6.35;3.42;;;;;;;;;;20922035;28;20139;-62
2022/10/22 09:19:18;;;;;;;9.93;4.35;;;;;;;;;;20920182;28;20061;-63
2022/10/22 09:29:23;;;;;;;6.53;3.97;;;;;;;;;;20919714;28;20463;-62
2022/10/22 09:39:27;;;;;;;4.45;1.50;;;;;;;;;;20916828;28;20176;-61
2022/10/22 09:49:33;;;;;;;6.30;3.60;;;;;;;;;;21075125;28;20475;-63
2022/10/22 09:59:40;;;;;;;6.45;3.72;;;;;;;;;;21063412;28;20117;-62
2022/10/22 10:09:42;;;;;;;6.88;2.90;;;;;;;;;;21080001;28;20054;-66
2022/10/22 10:20:05;;;;;;;7.93;3.75;;;;;;;;;;21062652;28;20048;-62
2022/10/22 10:30:15;;;;;;;7.32;2.42;;;;;;;;;;21081354;28;20178;-61
2022/10/22 10:40:41;;;;;;;8.30;2.92;;;;;;;;;;21080548;28;20394;-60
2022/10/22 10:51:02;;;;;;;9.40;2.50;;;;;;;;;;20821092;28;20053;-61
2022/10/22 11:01:36;;;;;;;5.03;2.45;;;;;;;;;;20821670;28;20049;-61
2022/10/22 11:11:45;;;;;;;4.80;2.97;;;;;;;;;;20498225;29;20532;-61
2022/10/22 11:21:52;;;;;;;8.20;2.83;;;;;;;;;;20568087;28;20073;-61
2022/10/22 11:31:56;;;;;;;6.03;2.70;;;;;;;;;;20739032;28;20132;-60
2022/10/22 11:41:59;;;;;;;5.30;2.72;;;;;;;;;;20860106;28;20056;-61
2022/10/22 11:52:21;;;;;;;6.18;2.13;;;;;;;;;;21077425;28;20052;-62
2022/10/22 12:02:45;;;;;;;4.90;1.67;;;;;;;;;;21083196;28;20096;-62
2022/10/22 12:12:52;;;;;;;6.10;2.22;;;;;;;;;;21092804;28;20044;-62
2022/10/22 12:22:54;;;;;;;6.00;1.63;;;;;;;;;;21092535;28;20051;-62
2022/10/22 12:32:59;;;;;;;3.80;2.05;;;;;;;;;;21073132;28;20097;-61
2022/10/22 12:43:02;;;;;;;3.80;1.75;;;;;;;;;;21089433;28;20067;-62
2022/10/22 12:53:05;;;;;;;6.85;2.55;;;;;;;;;;21087613;28;20260;-61
2022/10/22 13:03:06;;;;;;;4.65;1.98;;;;;;;;;;21088437;28;20059;-63
2022/10/22 13:13:28;;;;;;;5.53;2.10;;;;;;;;;;21088561;28;20040;-62
2022/10/22 13:23:30;;;;;;;3.00;1.48;;;;;;;;;;21086741;28;20051;-62
2022/10/22 13:33:35;;;;;;;6.03;2.30;;;;;;;;;;21086028;28;20073;-60
2022/10/22 13:43:36;;;;;;;6.18;1.77;;;;;;;;;;21085067;28;20055;-62
2022/10/22 13:53:37;;;;;;;5.75;1.65;;;;;;;;;;21085063;28;20105;-62
2022/10/22 14:03:39;;;;;;;5.35;1.85;;;;;;;;;;21085547;28;20048;-60
2022/10/22 14:13:41;;;;;;;3.78;1.55;;;;;;;;;;21082932;28;20059;-61
2022/10/22 14:23:45;;;;;;;4.45;1.58;;;;;;;;;;21081904;28;20559;-61
2022/10/22 14:33:48;;;;;;;4.28;1.40;;;;;;;;;;21081179;28;20066;-62
2022/10/22 14:43:51;;;;;;;4.20;1.90;;;;;;;;;;21061801;28;20070;-62
2022/10/22 14:53:53;;;;;;;4.05;1.42;;;;;;;;;;21079980;28;20148;-62
2022/10/22 15:03:55;;;;;;;2.75;1.10;;;;;;;;;;21061139;28;20047;-62
2022/10/22 15:13:58;;;;;;;1.80;0.90;;;;;;;;;;21078899;28;20059;-61
2022/10/22 15:24:00;;;;;;;1.67;0.90;;;;;;;;;;21078612;28;20055;-61
2022/10/22 15:34:03;;;;;;;3.10;1.10;;;;;;;;;;21080133;28;20052;-62
2022/10/22 15:44:05;;;;;;;1.77;0.70;;;;;;;;;;21094386;28;20056;-61
2022/10/22 15:54:27;;;;;;;3.78;0.90;;;;;;;;;;21094177;28;20047;-61
2022/10/22 16:04:29;;;;;;;1.85;0.82;;;;;;;;;;21093731;28;20040;-62
2022/10/22 16:14:31;;;;;;;2.28;0.70;;;;;;;;;;21093597;28;20131;-61
2022/10/22 16:24:33;;;;;;;2.58;0.85;;;;;;;;;;21092247;28;20119;-62
2022/10/22 16:34:35;;;;;;;6.32;2.20;;;;;;;;;;21090955;28;20052;-62
2022/10/22 16:44:37;;;;;;;3.35;0.95;;;;;;;;;;21090067;28;20044;-62
2022/10/22 16:54:39;;;;;;;2.63;0.90;;;;;;;;;;21089490;28;20048;-62
2022/10/22 17:04:41;;;;;;;4.15;1.00;;;;;;;;;;21088566;28;20055;-63
2022/10/22 17:14:43;;;;;;;6.00;1.23;;;;;;;;;;21087358;28;20186;-62
2022/10/22 17:24:46;;;;;;;7.68;3.50;;;;;;;;;;21086647;28;20463;-62
2022/10/22 17:34:48;;;;;;;1.85;0.63;;;;;;;;;;21086655;28;20480;-62
2022/10/22 17:44:50;;;;;;;7.55;4.10;;;;;;;;;;21084816;28;20096;-62
2022/10/22 17:54:53;;;;;;;4.10;0.73;;;;;;;;;;21084554;28;20070;-61
2022/10/22 18:04:55;;;;;;;0.75;0.47;;;;;;;;;;21084310;28;20094;-62
2022/10/22 18:14:57;;;;;;;1.05;0.20;;;;;;;;;;21082904;28;20062;-62
2022/10/22 18:24:59;;;;;;;0.80;0.28;;;;;;;;;;21082044;28;20066;-62
2022/10/22 18:35:01;;;;;;;1.00;0.40;;;;;;;;;;21081847;28;20047;-62
2022/10/22 18:45:03;;;;;;;2.13;0.70;;;;;;;;;;21080642;28;20428;-61
2022/10/22 18:55:05;;;;;;;3.28;0.52;;;;;;;;;;21080750;28;20044;-61
2022/10/22 19:05:07;;;;;;;3.95;0.60;;;;;;;;;;21081271;28;20455;-62
2022/10/22 19:15:09;;;;;;;1.73;0.60;;;;;;;;;;21078616;28;20479;-62
2022/10/22 19:25:11;;;;;;;2.50;0.60;;;;;;;;;;21079096;28;20055;-62
2022/10/22 19:35:13;;;;;;;2.15;0.52;;;;;;;;;;21078286;28;20178;-61
2022/10/22 19:45:17;;;;;;;3.45;1.23;;;;;;;;;;21077969;28;20536;-61
2022/10/22 19:55:18;;;;;;;2.10;0.90;;;;;;;;;;21078327;28;20137;-61
2022/10/22 20:05:20;;;;;;;3.03;0.63;;;;;;;;;;21077109;28;20052;-61
2022/10/22 20:15:22;;;;;;;1.20;0.63;;;;;;;;;;21058334;28;20052;-60
2022/10/22 20:25:24;;;;;;;2.17;0.60;;;;;;;;;;21085714;28;20182;-61
2022/10/22 20:35:26;;;;;;;1.65;0.73;;;;;;;;;;21090933;28;20052;-60
2022/10/22 20:45:28;;;;;;;2.95;0.93;;;;;;;;;;21090323;28;20052;-62
2022/10/22 20:55:30;;;;;;;7.75;4.03;;;;;;;;;;21091526;28;20411;-61
2022/10/22 21:05:33;;;;;;;3.53;1.98;;;;;;;;;;21089587;28;20096;-65
2022/10/22 21:15:35;;;;;;;3.50;1.63;;;;;;;;;;21087658;28;20051;-62
2022/10/22 21:25:38;;;;;;;3.33;1.15;;;;;;;;;;21087443;28;20155;-60
2022/10/22 21:35:40;;;;;;;3.05;1.80;;;;;;;;;;21085687;28;20063;-61
2022/10/22 21:45:42;;;;;;;2.72;1.50;;;;;;;;;;21085056;28;20138;-61
2022/10/22 21:55:44;;;;;;;4.95;1.40;;;;;;;;;;21084736;28;20480;-61
2022/10/22 22:05:46;;;;;;;6.35;1.20;;;;;;;;;;21084331;28;20052;-61
2022/10/22 22:15:48;;;;;;;3.67;0.93;;;;;;;;;;21083449;28;20155;-62
2022/10/22 22:25:50;;;;;;;2.25;0.68;;;;;;;;;;21082708;28;20205;-62
2022/10/22 22:35:57;;;;;;;1.63;0.57;;;;;;;;;;21063478;28;20056;-61
2022/10/22 22:46:03;;;;;;;0.82;0.60;;;;;;;;;;21080209;28;20139;-61
2022/10/22 22:56:06;;;;;;;1.65;0.60;;;;;;;;;;21081761;28;20051;-62
2022/10/22 23:06:09;;;;;;;2.08;0.70;;;;;;;;;;21081383;28;20051;-62
2022/10/22 23:16:14;;;;;;;1.70;0.90;;;;;;;;;;21080486;28;20131;-62
2022/10/22 23:26:20;;;;;;;1.67;0.88;;;;;;;;;;21079191;28;20067;-62
2022/10/22 23:36:23;;;;;;;1.67;0.88;;;;;;;;;;21079006;28;20056;-63
2022/10/22 23:46:25;;;;;;;2.85;1.00;;;;;;;;;;21077848;28;20102;-61
2022/10/22 23:56:27;;;;;;;2.15;0.90;;;;;;;;;;21080917;28;20048;-61
